Time;durP1;ratioP1;P1;durP2;ratioP2;P2;SDS_P1;SDS_P2;PMS_P1;PMS_P2;Temp;Humidity;BMP_temperature;BMP_pressure;BME280_temperature;BME280_humidity;BME280_pressure;Samples;Min_cycle;Max_cycle;Signal;HPM_P1;HPM_P2
2021/09/25 00:00:47;;;;;;;12.50;7.40;;;27.60;93.10;;;;;;5124242;28;20206;-56
2021/09/25 00:03:16;;;;;;;13.75;6.05;;;27.60;93.10;;;;;;5126883;28;20050;-57
2021/09/25 00:05:44;;;;;;;10.48;5.43;;;27.50;93.00;;;;;;5128428;28;20090;-54
2021/09/25 00:08:13;;;;;;;9.30;5.22;;;27.50;93.00;;;;;;5128535;28;20088;-55
2021/09/25 00:10:40;;;;;;;9.00;5.22;;;27.60;93.10;;;;;;5128475;28;20023;-51
2021/09/25 00:13:06;;;;;;;8.00;5.20;;;27.50;93.00;;;;;;5110487;28;20069;-52
2021/09/25 00:15:34;;;;;;;7.32;4.35;;;27.50;93.00;;;;;;5128124;28;20016;-53
2021/09/25 00:18:04;;;;;;;10.50;4.10;;;27.50;93.00;;;;;;5110441;28;20024;-55
2021/09/25 00:20:32;;;;;;;6.80;3.97;;;27.50;92.90;;;;;;5127739;28;20019;-52
2021/09/25 00:23:00;;;;;;;8.18;3.90;;;27.50;92.90;;;;;;5128344;28;20031;-57
2021/09/25 00:25:26;;;;;;;8.27;3.88;;;27.50;93.00;;;;;;5128274;28;20019;-55
2021/09/25 00:27:53;;;;;;;6.22;4.03;;;27.50;93.00;;;;;;5128442;28;20031;-56
2021/09/25 00:30:21;;;;;;;5.88;4.38;;;27.50;92.90;;;;;;5110032;28;20320;-56
2021/09/25 00:32:51;;;;;;;9.00;5.10;;;27.50;92.90;;;;;;5093341;28;20068;-56
2021/09/25 00:35:21;;;;;;;9.15;4.47;;;27.50;92.90;;;;;;5127516;28;20244;-55
2021/09/25 00:37:47;;;;;;;11.35;4.95;;;27.50;92.90;;;;;;5128213;28;20042;-57
2021/09/25 00:40:17;;;;;;;8.93;3.67;;;27.40;92.90;;;;;;5127935;28;20020;-53
2021/09/25 00:42:46;;;;;;;9.13;3.70;;;27.40;92.80;;;;;;5127852;28;20023;-55
2021/09/25 00:45:14;;;;;;;5.85;3.38;;;27.40;92.80;;;;;;5127841;28;20035;-54
2021/09/25 00:47:42;;;;;;;5.80;3.50;;;27.40;92.90;;;;;;5128046;28;20054;-54
2021/09/25 00:50:11;;;;;;;6.07;3.53;;;27.40;92.90;;;;;;5127688;28;20027;-55
2021/09/25 00:52:39;;;;;;;6.65;3.47;;;27.40;92.80;;;;;;5109873;28;20051;-51
2021/09/25 00:55:07;;;;;;;5.43;3.20;;;27.40;92.90;;;;;;5109783;28;20027;-50
2021/09/25 00:57:34;;;;;;;6.78;3.47;;;27.40;92.90;;;;;;5109369;28;20316;-53
2021/09/25 01:00:06;;;;;;;7.15;3.33;;;27.40;92.90;;;;;;5127829;28;20017;-50
2021/09/25 01:02:41;;;;;;;8.65;5.40;;;27.40;92.90;;;;;;5095960;28;20186;-49
2021/09/25 01:05:09;;;;;;;11.52;4.95;;;27.30;92.90;;;;;;5126974;28;20019;-56
2021/09/25 01:07:35;;;;;;;9.43;4.88;;;27.40;92.80;;;;;;5108884;28;20073;-54
2021/09/25 01:10:04;;;;;;;10.18;5.57;;;27.40;92.80;;;;;;5127009;28;20047;-59
2021/09/25 01:12:31;;;;;;;13.80;6.18;;;27.40;92.80;;;;;;5108959;28;20031;-53
2021/09/25 01:14:58;;;;;;;12.45;6.18;;;27.40;92.80;;;;;;5125994;28;20043;-56
2021/09/25 01:17:24;;;;;;;14.93;7.63;;;27.40;92.80;;;;;;5127229;28;20297;-55
2021/09/25 01:19:54;;;;;;;17.33;7.90;;;27.30;92.80;;;;;;5127068;28;20026;-54
2021/09/25 01:22:23;;;;;;;12.38;6.93;;;27.40;92.80;;;;;;5127147;28;20083;-50
2021/09/25 01:24:51;;;;;;;10.80;6.60;;;27.40;92.80;;;;;;5127065;28;20320;-58
2021/09/25 01:27:19;;;;;;;11.48;4.95;;;27.40;93.10;;;;;;5126895;28;20227;-49
2021/09/25 01:29:47;;;;;;;12.40;4.97;;;27.30;92.80;;;;;;5127042;28;20023;-50
2021/09/25 01:32:14;;;;;;;7.22;4.45;;;27.30;92.80;;;;;;5126956;28;20102;-53
2021/09/25 01:34:42;;;;;;;8.52;4.72;;;27.30;92.90;;;;;;5091323;28;20221;-50
2021/09/25 01:37:09;;;;;;;8.93;5.22;;;27.30;92.90;;;;;;5108701;28;20087;-53
2021/09/25 01:39:36;;;;;;;7.80;4.40;;;27.30;92.90;;;;;;5108843;28;20281;-51
2021/09/25 01:42:06;;;;;;;10.32;3.80;;;27.30;92.90;;;;;;5126715;28;20019;-53
2021/09/25 01:44:34;;;;;;;9.07;3.47;;;27.30;92.90;;;;;;5126742;28;20060;-53
2021/09/25 01:47:02;;;;;;;10.32;4.30;;;27.30;92.80;;;;;;5126561;28;20054;-51
2021/09/25 01:49:34;;;;;;;4.85;3.40;;;27.30;92.80;;;;;;5125579;28;20051;-52
2021/09/25 01:52:02;;;;;;;8.60;3.40;;;27.30;92.80;;;;;;5126402;28;20035;-51
2021/09/25 01:54:29;;;;;;;6.95;3.63;;;27.30;92.80;;;;;;5126282;28;20031;-59
2021/09/25 01:56:57;;;;;;;5.72;3.28;;;27.30;92.80;;;;;;5108555;28;20160;-48
2021/09/25 01:59:24;;;;;;;7.43;3.40;;;27.30;92.90;;;;;;5126434;28;20075;-48
2021/09/25 02:01:52;;;;;;;6.07;3.10;;;27.30;92.90;;;;;;5126123;28;20181;-53
2021/09/25 02:04:19;;;;;;;7.65;3.55;;;27.30;92.90;;;;;;5091089;28;20100;-55
2021/09/25 02:06:47;;;;;;;7.43;3.55;;;27.30;92.90;;;;;;5108217;28;20027;-53
2021/09/25 02:09:14;;;;;;;7.88;4.15;;;27.30;92.90;;;;;;5108181;28;20069;-50
2021/09/25 02:11:40;;;;;;;6.20;3.42;;;27.30;92.90;;;;;;5125704;28;20024;-53
2021/09/25 02:14:07;;;;;;;8.20;4.28;;;27.30;92.90;;;;;;5126574;28;20047;-52
2021/09/25 02:16:33;;;;;;;8.25;3.50;;;27.30;92.90;;;;;;5125863;28;20015;-54
2021/09/25 02:19:00;;;;;;;8.30;3.45;;;27.30;92.90;;;;;;5126394;28;20035;-52
2021/09/25 02:21:28;;;;;;;11.52;3.60;;;27.30;92.90;;;;;;5125883;28;20331;-50
2021/09/25 02:23:56;;;;;;;12.60;3.67;;;27.30;92.90;;;;;;5107744;28;20028;-57
2021/09/25 02:26:23;;;;;;;9.23;3.90;;;27.30;92.90;;;;;;5125449;28;20092;-54
2021/09/25 02:28:49;;;;;;;7.68;3.60;;;27.20;92.90;;;;;;5126279;28;20034;-51
2021/09/25 02:31:19;;;;;;;9.30;3.67;;;27.20;92.80;;;;;;5125795;28;20026;-57
2021/09/25 02:33:49;;;;;;;6.65;3.90;;;27.20;92.80;;;;;;5125700;28;20118;-53
2021/09/25 02:36:16;;;;;;;4.47;3.42;;;27.20;92.80;;;;;;5125760;28;20027;-55
2021/09/25 02:38:43;;;;;;;7.53;3.28;;;27.20;92.80;;;;;;5124543;28;20042;-57
2021/09/25 02:41:09;;;;;;;5.38;3.38;;;27.20;92.90;;;;;;5125587;28;20204;-50
2021/09/25 02:43:38;;;;;;;9.27;3.55;;;27.30;93.00;;;;;;5125310;28;20024;-53
2021/09/25 02:46:04;;;;;;;8.55;3.30;;;27.20;92.90;;;;;;5107178;28;20027;-58
2021/09/25 02:48:32;;;;;;;8.45;3.85;;;27.20;93.00;;;;;;5125200;28;20024;-53
2021/09/25 02:50:59;;;;;;;10.48;4.13;;;27.20;93.10;;;;;;5107335;28;20314;-51
2021/09/25 02:53:25;;;;;;;11.00;4.45;;;27.20;93.20;;;;;;5125426;28;20200;-54
2021/09/25 02:55:53;;;;;;;11.70;4.35;;;27.20;93.20;;;;;;5125485;28;20027;-54
2021/09/25 02:58:20;;;;;;;10.77;3.83;;;27.20;93.30;;;;;;5125537;28;20026;-52
2021/09/25 03:00:46;;;;;;;13.65;4.03;;;27.10;93.40;;;;;;5125060;28;20084;-55
2021/09/25 03:03:13;;;;;;;6.88;3.45;;;27.10;93.40;;;;;;5124047;28;20304;-53
2021/09/25 03:05:40;;;;;;;11.18;3.30;;;27.10;93.40;;;;;;5125129;28;20068;-54
2021/09/25 03:08:07;;;;;;;11.65;3.45;;;27.10;93.40;;;;;;5125460;28;20015;-55
2021/09/25 03:10:34;;;;;;;7.97;2.92;;;27.10;93.40;;;;;;5107165;28;20103;-57
2021/09/25 03:13:00;;;;;;;8.75;3.05;;;27.10;93.50;;;;;;5107361;28;20024;-52
2021/09/25 03:15:27;;;;;;;6.22;2.50;;;27.10;93.50;;;;;;5124983;28;20324;-48
2021/09/25 03:17:53;;;;;;;10.02;2.78;;;27.10;93.50;;;;;;5125303;28;20050;-48
2021/09/25 03:20:22;;;;;;;7.43;2.47;;;27.10;93.50;;;;;;5124804;28;20019;-51
2021/09/25 03:22:48;;;;;;;8.25;2.60;;;27.10;93.40;;;;;;5125156;28;20060;-52
2021/09/25 03:25:15;;;;;;;4.45;2.35;;;27.10;93.60;;;;;;5124744;28;20312;-55
2021/09/25 03:27:45;;;;;;;6.30;2.60;;;27.10;93.40;;;;;;5125102;28;20031;-56
2021/09/25 03:30:16;;;;;;;7.40;2.65;;;27.10;93.30;;;;;;5125122;28;20019;-54
2021/09/25 03:32:42;;;;;;;10.15;3.05;;;27.10;93.30;;;;;;5124861;28;20035;-49
2021/09/25 03:35:09;;;;;;;8.10;2.50;;;27.10;93.30;;;;;;5124665;28;20055;-53
2021/09/25 03:37:36;;;;;;;4.38;2.70;;;27.10;93.30;;;;;;5124221;28;20030;-51
2021/09/25 03:40:03;;;;;;;6.70;2.38;;;27.10;93.30;;;;;;5124759;28;20028;-51
2021/09/25 03:42:29;;;;;;;5.47;2.40;;;27.10;93.30;;;;;;5124780;28;20019;-49
2021/09/25 03:44:56;;;;;;;3.95;2.40;;;27.10;93.30;;;;;;5124774;28;20019;-47
2021/09/25 03:47:23;;;;;;;6.15;2.25;;;27.10;93.30;;;;;;5124567;28;20307;-49
2021/09/25 03:49:50;;;;;;;6.70;2.15;;;27.10;93.40;;;;;;5124419;28;20015;-48
2021/09/25 03:52:16;;;;;;;6.85;2.30;;;27.10;93.40;;;;;;5124503;28;20055;-56
2021/09/25 03:54:43;;;;;;;8.60;2.42;;;27.00;93.40;;;;;;5124223;28;20068;-53
2021/09/25 03:57:09;;;;;;;6.32;2.08;;;27.10;93.40;;;;;;5124413;28;20011;-50
2021/09/25 03:59:36;;;;;;;8.32;2.30;;;27.10;93.30;;;;;;5124349;28;20016;-50
2021/09/25 04:02:03;;;;;;;10.30;2.10;;;27.10;93.30;;;;;;5124288;28;20181;-51
2021/09/25 04:04:29;;;;;;;5.65;2.05;;;27.10;93.30;;;;;;5124363;28;20311;-54
2021/09/25 04:06:57;;;;;;;5.97;2.53;;;27.10;93.30;;;;;;5124239;28;20259;-55
2021/09/25 04:09:24;;;;;;;6.18;2.35;;;27.10;93.30;;;;;;5106340;28;20023;-52
2021/09/25 04:11:50;;;;;;;5.53;1.95;;;27.10;93.30;;;;;;5124165;28;20026;-49
2021/09/25 04:14:19;;;;;;;6.40;2.78;;;27.10;93.30;;;;;;5124316;28;20350;-53
2021/09/25 04:16:45;;;;;;;7.43;2.58;;;27.10;93.30;;;;;;5124108;28;20020;-49
2021/09/25 04:19:12;;;;;;;7.57;2.40;;;27.00;93.30;;;;;;5124653;28;20238;-49
2021/09/25 04:21:39;;;;;;;5.05;2.38;;;27.00;93.30;;;;;;5124169;28;20022;-50
2021/09/25 04:24:06;;;;;;;5.70;2.47;;;27.00;93.20;;;;;;5124099;28;20027;-57
2021/09/25 04:26:32;;;;;;;4.78;1.95;;;27.00;93.30;;;;;;5124094;28;20015;-53
2021/09/25 04:28:59;;;;;;;10.63;2.47;;;27.00;93.30;;;;;;5124557;28;20208;-48
2021/09/25 04:31:26;;;;;;;4.60;2.13;;;27.00;93.30;;;;;;5123875;28;20023;-50
2021/09/25 04:33:52;;;;;;;3.90;1.77;;;27.00;93.30;;;;;;5124014;28;20044;-53
2021/09/25 04:36:19;;;;;;;4.88;2.10;;;27.00;93.30;;;;;;5124277;28;20133;-52
2021/09/25 04:38:46;;;;;;;8.32;2.38;;;26.90;93.30;;;;;;5124300;28;20023;-53
2021/09/25 04:41:12;;;;;;;9.88;2.13;;;27.00;93.30;;;;;;5123998;28;20035;-56
2021/09/25 04:43:39;;;;;;;6.18;2.10;;;26.90;93.30;;;;;;5124537;28;20165;-52
2021/09/25 04:46:05;;;;;;;7.35;1.90;;;26.90;93.30;;;;;;5123847;28;20019;-51
2021/09/25 04:48:32;;;;;;;6.70;1.90;;;26.90;93.30;;;;;;5125375;28;20016;-52
2021/09/25 04:50:58;;;;;;;4.90;1.80;;;26.90;93.20;;;;;;5127771;28;20064;-52
2021/09/25 04:53:25;;;;;;;5.35;2.08;;;26.90;93.20;;;;;;5127823;28;20051;-47
2021/09/25 04:55:51;;;;;;;9.23;2.22;;;26.90;93.20;;;;;;5127509;28;20098;-52
2021/09/25 04:58:18;;;;;;;6.10;1.90;;;26.90;93.20;;;;;;5127974;28;20023;-49
2021/09/25 05:00:44;;;;;;;7.47;2.13;;;26.90;93.10;;;;;;5127434;28;20043;-51
2021/09/25 05:03:11;;;;;;;5.03;1.98;;;26.90;93.10;;;;;;5127725;28;20063;-54
2021/09/25 05:05:37;;;;;;;3.72;1.77;;;26.90;93.10;;;;;;5127352;28;20027;-51
2021/09/25 05:08:04;;;;;;;4.88;2.08;;;26.90;93.10;;;;;;5127293;28;20218;-52
2021/09/25 05:10:31;;;;;;;7.75;1.98;;;26.80;93.10;;;;;;5127558;28;20024;-50
2021/09/25 05:12:57;;;;;;;6.85;1.70;;;26.80;93.10;;;;;;5127469;28;20057;-50
2021/09/25 05:15:24;;;;;;;6.47;1.95;;;26.80;93.20;;;;;;5127260;28;20023;-55
2021/09/25 05:17:50;;;;;;;5.88;1.90;;;26.80;93.10;;;;;;5127282;28;20085;-50
2021/09/25 05:20:17;;;;;;;9.70;2.38;;;26.90;93.10;;;;;;5127215;28;20012;-54
2021/09/25 05:22:44;;;;;;;5.88;2.03;;;26.90;93.10;;;;;;5127331;28;20020;-52
2021/09/25 05:25:11;;;;;;;17.83;2.80;;;26.90;93.10;;;;;;5126944;28;20250;-49
2021/09/25 05:27:38;;;;;;;14.77;2.78;;;26.80;93.00;;;;;;5127080;28;20031;-49
2021/09/25 05:30:06;;;;;;;26.50;3.45;;;26.80;93.10;;;;;;5126964;28;20024;-53
2021/09/25 05:32:33;;;;;;;29.48;4.07;;;26.80;93.00;;;;;;5126940;28;20060;-50
2021/09/25 05:35:00;;;;;;;37.58;5.22;;;26.80;93.10;;;;;;5126757;28;20270;-52
2021/09/25 05:37:26;;;;;;;42.35;6.53;;;26.80;93.10;;;;;;5126872;28;20027;-48
2021/09/25 05:39:56;;;;;;;69.13;7.20;;;26.80;93.10;;;;;;5126680;28;20082;-50
2021/09/25 05:42:26;;;;;;;86.93;9.13;;;26.80;93.10;;;;;;5126842;28;20079;-50
2021/09/25 05:44:54;;;;;;;110.18;11.77;;;26.80;93.00;;;;;;5126580;28;20091;-48
2021/09/25 05:47:22;;;;;;;102.30;11.23;;;26.80;93.10;;;;;;5126739;28;20300;-48
2021/09/25 05:49:49;;;;;;;118.20;11.70;;;26.80;93.10;;;;;;5126588;28;20212;-47
2021/09/25 05:52:17;;;;;;;124.45;12.30;;;26.70;93.10;;;;;;5126544;28;20068;-55
2021/09/25 05:54:43;;;;;;;122.25;13.15;;;26.70;93.20;;;;;;5126666;28;20355;-50
2021/09/25 05:57:11;;;;;;;126.43;11.95;;;26.70;93.40;;;;;;5126560;28;20022;-49
2021/09/25 05:59:37;;;;;;;85.07;9.73;;;26.70;93.20;;;;;;5126082;28;20018;-48
2021/09/25 06:02:04;;;;;;;99.80;9.20;;;26.80;93.20;;;;;;5126220;28;20011;-54
2021/09/25 06:04:33;;;;;;;73.82;8.88;;;26.80;93.40;;;;;;5126365;28;20061;-52
2021/09/25 06:07:00;;;;;;;75.35;8.25;;;26.80;93.20;;;;;;5126398;28;20019;-49
2021/09/25 06:09:27;;;;;;;64.72;8.68;;;26.80;93.20;;;;;;5126394;28;20020;-50
2021/09/25 06:11:54;;;;;;;46.15;6.93;;;26.80;93.20;;;;;;5126136;28;20058;-50
2021/09/25 06:14:21;;;;;;;38.80;5.28;;;26.80;93.10;;;;;;5125970;28;20019;-47
2021/09/25 06:16:48;;;;;;;53.50;5.68;;;26.80;93.10;;;;;;5125902;28;20022;-51
2021/09/25 06:19:15;;;;;;;49.40;5.68;;;26.80;93.10;;;;;;5126476;28;20058;-51
2021/09/25 06:21:43;;;;;;;75.05;7.63;;;26.80;93.10;;;;;;5125864;28;20019;-53
2021/09/25 06:24:10;;;;;;;74.40;9.10;;;26.80;93.10;;;;;;5126258;28;20170;-50
2021/09/25 06:26:36;;;;;;;57.13;7.28;;;26.80;93.10;;;;;;5125890;28;20327;-48
2021/09/25 06:29:04;;;;;;;57.45;6.68;;;26.80;93.10;;;;;;5126342;28;20031;-55
2021/09/25 06:31:30;;;;;;;66.35;7.22;;;26.80;93.10;;;;;;5125620;28;20027;-51
2021/09/25 06:33:57;;;;;;;66.93;7.13;;;26.80;93.10;;;;;;5125933;28;20047;-50
2021/09/25 06:36:24;;;;;;;57.67;7.28;;;26.80;93.10;;;;;;5125703;28;20080;-51
2021/09/25 06:38:50;;;;;;;62.30;7.05;;;26.80;93.10;;;;;;5125957;28;20028;-53
2021/09/25 06:41:17;;;;;;;45.65;6.15;;;26.80;93.10;;;;;;5125668;28;20212;-54
2021/09/25 06:43:44;;;;;;;38.97;6.32;;;26.80;93.10;;;;;;5125948;28;20279;-50
2021/09/25 06:46:12;;;;;;;39.40;5.00;;;26.80;93.10;;;;;;5125404;28;20034;-49
2021/09/25 06:48:39;;;;;;;39.45;4.90;;;26.80;93.10;;;;;;5125805;28;20023;-48
2021/09/25 06:51:06;;;;;;;44.05;5.05;;;26.80;93.10;;;;;;5125343;28;20038;-50
2021/09/25 06:53:33;;;;;;;32.47;4.35;;;26.70;93.00;;;;;;5125516;28;20027;-51
2021/09/25 06:55:59;;;;;;;23.08;4.18;;;26.80;93.10;;;;;;5125228;28;20219;-49
2021/09/25 06:58:26;;;;;;;29.90;3.67;;;26.80;93.10;;;;;;5125490;28;20031;-50
2021/09/25 07:00:52;;;;;;;21.95;3.83;;;26.70;93.10;;;;;;5125126;28;20012;-49
2021/09/25 07:03:19;;;;;;;18.13;3.22;;;26.70;93.10;;;;;;5125495;28;20019;-48
2021/09/25 07:05:46;;;;;;;27.23;3.42;;;26.80;93.10;;;;;;5125336;28;20028;-50
2021/09/25 07:08:12;;;;;;;16.40;2.80;;;26.70;93.10;;;;;;5125082;28;20027;-49
2021/09/25 07:10:39;;;;;;;15.20;3.35;;;26.70;93.20;;;;;;5124971;28;20023;-48
2021/09/25 07:13:05;;;;;;;21.85;2.83;;;26.70;93.20;;;;;;5124300;28;20042;-49
2021/09/25 07:15:32;;;;;;;21.27;3.40;;;26.70;93.10;;;;;;5124755;28;20034;-48
2021/09/25 07:17:59;;;;;;;9.25;2.22;;;26.70;93.10;;;;;;5125107;28;20024;-48
2021/09/25 07:20:26;;;;;;;15.95;2.20;;;26.70;93.10;;;;;;5124886;28;20035;-53
2021/09/25 07:22:53;;;;;;;15.95;2.60;;;26.70;93.10;;;;;;5124953;28;20185;-49
2021/09/25 07:25:23;;;;;;;15.50;2.53;;;26.70;93.10;;;;;;5124727;28;20043;-49
2021/09/25 07:27:51;;;;;;;18.50;2.70;;;26.70;93.00;;;;;;5124914;28;20050;-51
2021/09/25 07:30:18;;;;;;;13.38;2.45;;;26.70;93.00;;;;;;5124633;28;20381;-54
2021/09/25 07:32:45;;;;;;;12.63;2.00;;;26.70;93.00;;;;;;5124883;28;20407;-48
2021/09/25 07:35:13;;;;;;;12.00;2.13;;;26.70;93.00;;;;;;5124444;28;20351;-51
2021/09/25 07:37:41;;;;;;;7.72;2.10;;;26.70;92.90;;;;;;5124331;28;20081;-50
2021/09/25 07:40:08;;;;;;;10.07;1.85;;;26.70;92.90;;;;;;5124515;28;20023;-47
2021/09/25 07:42:36;;;;;;;10.60;2.25;;;26.70;92.90;;;;;;5124768;28;20030;-52
2021/09/25 07:45:04;;;;;;;8.23;1.83;;;26.70;92.90;;;;;;5124424;28;20068;-54
2021/09/25 07:47:31;;;;;;;9.68;1.88;;;26.60;92.80;;;;;;5124512;28;20059;-48
2021/09/25 07:49:57;;;;;;;7.88;2.30;;;26.70;92.90;;;;;;5124501;28;20065;-47
2021/09/25 07:52:24;;;;;;;10.70;2.00;;;26.60;92.80;;;;;;5124424;28;20199;-50
2021/09/25 07:54:50;;;;;;;6.45;1.70;;;26.70;92.80;;;;;;5124297;28;20094;-48
2021/09/25 07:57:17;;;;;;;9.13;1.85;;;26.60;92.80;;;;;;5124481;28;20019;-52
2021/09/25 07:59:43;;;;;;;10.75;1.77;;;26.70;92.90;;;;;;5124152;28;20012;-50
2021/09/25 08:02:10;;;;;;;10.57;1.70;;;26.60;92.80;;;;;;5124345;28;20027;-49
2021/09/25 08:04:36;;;;;;;5.15;1.42;;;26.70;92.90;;;;;;5124362;28;20045;-47
2021/09/25 08:07:03;;;;;;;6.10;2.00;;;26.60;92.80;;;;;;5124312;28;20019;-48
2021/09/25 08:09:30;;;;;;;9.43;1.60;;;26.60;92.80;;;;;;5124205;28;20031;-48
2021/09/25 08:11:56;;;;;;;12.73;1.90;;;26.60;92.80;;;;;;5124313;28;20019;-53
2021/09/25 08:14:23;;;;;;;8.70;1.60;;;26.60;92.80;;;;;;5124152;28;20083;-50
2021/09/25 08:16:50;;;;;;;8.63;3.10;;;26.60;92.80;;;;;;5124200;28;20030;-50
2021/09/25 08:19:16;;;;;;;12.98;4.13;;;26.60;92.80;;;;;;5124124;28;20099;-48
2021/09/25 08:21:43;;;;;;;7.88;3.70;;;26.60;92.70;;;;;;5124175;28;20011;-57
2021/09/25 08:24:09;;;;;;;13.57;2.78;;;26.50;92.70;;;;;;5126162;28;20032;-51
2021/09/25 08:26:36;;;;;;;22.98;3.33;;;26.50;92.70;;;;;;5128202;28;20038;-56
2021/09/25 08:29:04;;;;;;;21.55;3.92;;;26.50;92.70;;;;;;5128712;28;20023;-54
2021/09/25 08:31:30;;;;;;;15.10;3.13;;;26.50;92.70;;;;;;5127981;28;20047;-47
2021/09/25 08:33:57;;;;;;;11.52;2.85;;;26.50;92.70;;;;;;5128363;28;20038;-52
2021/09/25 08:36:23;;;;;;;10.63;2.95;;;26.50;92.70;;;;;;5128128;28;20054;-55
2021/09/25 08:38:50;;;;;;;13.82;3.10;;;26.50;92.70;;;;;;5128311;28;20230;-49
2021/09/25 08:41:17;;;;;;;13.68;3.33;;;26.50;92.60;;;;;;5128076;28;20015;-48
2021/09/25 08:43:44;;;;;;;14.02;3.08;;;26.50;92.60;;;;;;5128231;28;20085;-48
2021/09/25 08:46:11;;;;;;;18.27;3.50;;;26.50;92.70;;;;;;5127744;28;20026;-47
2021/09/25 08:48:38;;;;;;;13.63;2.80;;;26.50;92.70;;;;;;5128102;28;20316;-48
2021/09/25 08:51:05;;;;;;;15.35;2.60;;;26.50;92.60;;;;;;5127992;28;20031;-49
2021/09/25 08:53:31;;;;;;;8.32;2.22;;;26.40;92.50;;;;;;5127836;28;20106;-52
2021/09/25 08:55:58;;;;;;;9.82;2.38;;;26.40;92.50;;;;;;5127667;28;20016;-46
2021/09/25 08:58:25;;;;;;;7.93;1.88;;;26.40;92.50;;;;;;5127993;28;20091;-48
2021/09/25 09:00:52;;;;;;;7.57;2.00;;;26.40;92.40;;;;;;5127393;28;20020;-48
2021/09/25 09:03:22;;;;;;;12.73;2.65;;;26.40;92.50;;;;;;5127883;28;20136;-46
2021/09/25 09:05:53;;;;;;;7.10;2.78;;;26.40;92.40;;;;;;5127435;28;20027;-45
2021/09/25 09:08:21;;;;;;;11.15;3.15;;;26.30;92.40;;;;;;5127540;28;20073;-48
2021/09/25 09:10:48;;;;;;;16.33;3.17;;;26.40;92.40;;;;;;5127329;28;20220;-46
2021/09/25 09:13:16;;;;;;;7.57;3.00;;;26.40;92.40;;;;;;5127686;28;20105;-48
2021/09/25 09:15:43;;;;;;;10.30;3.10;;;26.30;92.40;;;;;;5126976;28;20034;-48
2021/09/25 09:18:14;;;;;;;7.80;3.15;;;26.40;92.40;;;;;;5127428;28;20030;-47
2021/09/25 09:20:59;;;;;;;9.88;3.33;;;26.30;92.30;;;;;;5127098;28;20204;-48
2021/09/25 09:23:26;;;;;;;12.18;3.03;;;26.30;92.40;;;;;;5127550;28;20293;-48
2021/09/25 09:25:52;;;;;;;14.27;2.75;;;26.30;92.40;;;;;;5127104;28;20027;-48
2021/09/25 09:28:25;;;;;;;9.32;2.50;;;26.30;92.40;;;;;;5127117;28;20239;-46
2021/09/25 09:30:54;;;;;;;6.03;2.70;;;26.30;92.40;;;;;;5126988;28;20088;-46
2021/09/25 09:33:39;;;;;;;13.15;2.85;;;26.30;92.40;;;;;;5127027;28;20051;-47
2021/09/25 09:36:12;;;;;;;7.72;2.97;;;26.30;92.40;;;;;;5125669;28;20047;-45
2021/09/25 09:38:53;;;;;;;11.18;2.63;;;26.30;92.40;;;;;;5127135;28;20088;-51
2021/09/25 09:41:47;;;;;;;12.57;2.60;;;26.30;92.40;;;;;;5126806;28;20254;-47
2021/09/25 09:44:18;;;;;;;10.15;2.40;;;26.30;92.50;;;;;;5123623;28;20054;-55
2021/09/25 09:46:53;;;;;;;7.53;2.55;;;26.20;92.50;;;;;;5126826;28;20082;-53
2021/09/25 09:49:32;;;;;;;7.35;2.80;;;26.20;92.50;;;;;;5126583;28;20031;-52
2021/09/25 09:52:05;;;;;;;7.63;2.50;;;26.20;92.50;;;;;;5126678;28;20050;-58
2021/09/25 09:54:35;;;;;;;9.52;2.83;;;26.20;92.50;;;;;;5126462;28;20015;-54
2021/09/25 09:57:06;;;;;;;10.40;2.42;;;26.20;92.50;;;;;;5126656;28;20015;-53
2021/09/25 09:59:33;;;;;;;11.65;2.95;;;26.20;92.50;;;;;;5126415;28;20019;-51
2021/09/25 10:02:00;;;;;;;8.77;2.40;;;26.20;92.60;;;;;;5126237;28;20084;-55
2021/09/25 10:04:27;;;;;;;9.80;2.00;;;26.20;92.60;;;;;;5126623;28;20097;-53
2021/09/25 10:06:54;;;;;;;7.15;2.65;;;26.20;92.60;;;;;;5126259;28;20069;-60
2021/09/25 10:09:24;;;;;;;9.93;1.98;;;26.20;92.70;;;;;;5126063;28;20027;-52
2021/09/25 10:12:14;;;;;;;8.85;1.90;;;26.20;92.70;;;;;;5126247;28;20020;-49
2021/09/25 10:14:46;;;;;;;7.85;2.03;;;26.20;92.60;;;;;;5125962;28;20090;-52
2021/09/25 10:17:15;;;;;;;7.57;2.10;;;26.20;92.70;;;;;;5126290;28;20051;-45
2021/09/25 10:19:43;;;;;;;11.88;2.47;;;26.20;92.70;;;;;;5125787;28;20039;-45
2021/09/25 10:22:22;;;;;;;11.00;3.35;;;26.20;92.70;;;;;;5126145;28;20043;-49
2021/09/25 10:24:58;;;;;;;14.32;4.15;;;26.10;92.70;;;;;;5125771;28;20027;-45
2021/09/25 10:27:46;;;;;;;13.00;4.20;;;26.10;92.70;;;;;;5125948;28;20030;-51
2021/09/25 10:30:15;;;;;;;18.90;6.10;;;26.10;92.70;;;;;;5125762;28;20250;-52
2021/09/25 10:32:49;;;;;;;20.50;9.82;;;26.10;92.70;;;;;;5125865;28;20062;-46
2021/09/25 10:35:24;;;;;;;15.10;6.30;;;26.10;92.70;;;;;;5125518;28;20115;-51
2021/09/25 10:37:51;;;;;;;17.70;6.97;;;26.10;92.70;;;;;;5125667;28;20233;-52
2021/09/25 10:40:27;;;;;;;19.33;7.30;;;26.10;92.60;;;;;;5125691;28;20020;-52
2021/09/25 10:42:57;;;;;;;18.35;8.05;;;26.10;92.70;;;;;;5125661;28;20024;-46
2021/09/25 10:45:33;;;;;;;15.57;7.18;;;26.10;92.70;;;;;;5125511;28;20039;-48
2021/09/25 10:48:10;;;;;;;17.90;7.47;;;26.10;92.70;;;;;;5125605;28;20032;-52
2021/09/25 10:50:49;;;;;;;18.08;6.90;;;26.10;92.70;;;;;;5125301;28;20020;-48
2021/09/25 10:53:22;;;;;;;13.07;6.72;;;26.10;92.70;;;;;;5125414;28;20070;-51
2021/09/25 10:55:53;;;;;;;17.55;6.30;;;26.20;92.70;;;;;;5125188;28;20027;-43
2021/09/25 10:58:28;;;;;;;17.17;5.38;;;26.10;92.70;;;;;;5125516;28;20319;-51
2021/09/25 11:00:56;;;;;;;12.25;5.53;;;26.10;92.70;;;;;;5125177;28;20208;-50
2021/09/25 11:03:41;;;;;;;14.40;5.30;;;26.10;92.80;;;;;;5125541;28;20057;-47
2021/09/25 11:06:12;;;;;;;11.60;4.90;;;26.10;92.80;;;;;;5124885;28;20020;-51
2021/09/25 11:08:51;;;;;;;16.67;5.32;;;26.10;92.70;;;;;;5125649;28;20023;-48
2021/09/25 11:11:29;;;;;;;8.75;4.43;;;26.10;92.80;;;;;;5125154;28;20079;-46
2021/09/25 11:14:05;;;;;;;17.05;5.28;;;26.10;93.00;;;;;;5125481;28;20024;-52
2021/09/25 11:16:49;;;;;;;13.15;4.50;;;26.10;93.00;;;;;;5124826;28;20012;-50
2021/09/25 11:19:22;;;;;;;15.90;3.75;;;26.10;92.90;;;;;;5124885;28;20030;-51
2021/09/25 11:22:10;;;;;;;13.85;3.75;;;26.10;93.00;;;;;;5124676;28;20019;-53
2021/09/25 11:24:46;;;;;;;8.95;3.55;;;26.10;92.90;;;;;;5124603;28;20027;-55
2021/09/25 11:27:23;;;;;;;10.63;3.15;;;26.10;92.90;;;;;;5124621;28;20027;-51
2021/09/25 11:29:51;;;;;;;16.80;3.22;;;26.20;93.00;;;;;;5124559;28;20028;-49
2021/09/25 11:32:31;;;;;;;16.40;3.40;;;26.20;92.90;;;;;;5124656;28;20356;-51
2021/09/25 11:34:59;;;;;;;14.10;2.80;;;26.20;93.10;;;;;;5124621;28;20052;-47
2021/09/25 11:37:27;;;;;;;11.75;2.70;;;26.20;92.90;;;;;;5124546;28;20068;-48
2021/09/25 11:39:55;;;;;;;13.32;2.65;;;26.30;92.90;;;;;;5124363;28;20072;-49
2021/09/25 11:42:27;;;;;;;11.40;2.60;;;26.30;92.70;;;;;;5124897;28;20031;-50
2021/09/25 11:44:59;;;;;;;;;;;26.30;92.60;;;;;;5124911;28;20084;-52
2021/09/25 11:47:32;;;;;;;16.02;3.13;;;26.30;92.60;;;;;;5124606;28;19908;-45
2021/09/25 11:50:20;;;;;;;11.20;2.08;;;26.30;92.60;;;;;;5124614;28;20024;-51
2021/09/25 11:52:50;;;;;;;16.25;3.00;;;26.40;92.60;;;;;;5124720;28;20031;-48
2021/09/25 11:55:17;;;;;;;20.13;3.35;;;26.50;92.50;;;;;;5124331;28;20030;-52
2021/09/25 11:57:55;;;;;;;28.42;4.00;;;26.50;92.60;;;;;;5124227;28;20083;-51
2021/09/25 12:00:30;;;;;;;33.10;4.78;;;26.50;92.50;;;;;;5124457;28;20020;-53
2021/09/25 12:02:58;;;;;;;18.98;3.08;;;26.60;92.40;;;;;;5124512;28;20024;-52
2021/09/25 12:05:31;;;;;;;17.45;2.88;;;26.60;92.40;;;;;;5124407;28;20035;-53
2021/09/25 12:08:01;;;;;;;30.02;4.30;;;26.60;92.00;;;;;;5124366;28;20035;-52
2021/09/25 12:10:32;;;;;;;24.05;3.20;;;26.60;92.10;;;;;;5124451;28;20070;-52
2021/09/25 12:13:03;;;;;;;35.58;4.05;;;26.70;92.40;;;;;;5124361;28;20031;-51
2021/09/25 12:15:35;;;;;;;30.35;4.30;;;26.80;92.20;;;;;;5106626;28;20027;-50
2021/09/25 12:18:27;;;;;;;43.78;5.30;;;26.80;92.00;;;;;;5124414;28;20020;-50
2021/09/25 12:21:06;;;;;;;65.57;7.60;;;26.90;91.90;;;;;;5124270;28;20015;-53
2021/09/25 12:23:42;;;;;;;62.13;6.55;;;26.90;91.80;;;;;;5124361;28;20087;-54
2021/09/25 12:26:21;;;;;;;46.78;6.93;;;26.90;91.90;;;;;;5123943;28;20042;-52
2021/09/25 12:28:51;;;;;;;70.80;7.97;;;26.90;91.90;;;;;;5124480;28;20034;-54
2021/09/25 12:31:27;;;;;;;52.72;6.20;;;26.90;91.80;;;;;;5123950;28;20046;-52
2021/09/25 12:33:56;;;;;;;90.43;7.93;;;27.00;92.00;;;;;;5124298;28;20387;-54
2021/09/25 12:36:28;;;;;;;96.85;10.10;;;27.00;92.00;;;;;;5124228;28;20022;-50
2021/09/25 12:39:01;;;;;;;82.38;7.55;;;27.00;92.00;;;;;;5124372;28;20286;-52
2021/09/25 12:41:28;;;;;;;48.63;5.45;;;27.10;91.80;;;;;;5123992;28;20099;-51
2021/09/25 12:43:59;;;;;;;64.07;7.60;;;27.10;91.50;;;;;;5124193;28;20024;-53
2021/09/25 12:46:30;;;;;;;52.45;6.40;;;27.10;91.70;;;;;;5123875;28;20035;-50
2021/09/25 12:49:17;;;;;;;40.30;5.13;;;27.10;91.70;;;;;;5124213;28;20019;-50